Yeoward Addition, Illinois
Current Conditions -  °F | °C
As of 7:35 PM on Wednesday 22 Oct 2014 (Local Time) from KSQI Reporting Station
Clear Clear  
Wind Chill: 44°   Ceiling: Unl
Heat Index: 46°   Visibility: 9mi
Dew Point: 34°   Wind: 5mph
Humidity: 62%   Direction: 140°SE
Pressure: 30.24"   Gusts: NA
Location:  41.7267°N, 89.7066°W
Report Text: KSQI 230035Z AUTO 14004KT 9SM CLR 08/01 A3024 RMK AO1
Loading
Personal Weather Stations






























Interactive Weather Map
Tropical Storm Tracking
New forecast layout! Learn more

10-Day Weather Forecast

Advertisements
Track Severe Weather on mobile